Time;durP1;ratioP1;P1;durP2;ratioP2;P2;SDS_P1;SDS_P2;PMS_P1;PMS_P2;Temp;Humidity;BMP_temperature;BMP_pressure;BME280_temperature;BME280_humidity;BME280_pressure;Samples;Min_cycle;Max_cycle;Signal;HPM_P1;HPM_P2
2023/03/23 00:00:59;;;;;;;4.83;1.93;;;12.70;99.90;;;;;;4997318;28;20212;-75
2023/03/23 00:03:26;;;;;;;2.13;1.77;;;12.70;99.90;;;;;;4995914;28;20223;-73
2023/03/23 00:06:04;;;;;;;2.17;1.60;;;12.60;99.90;;;;;;4995350;28;20692;-74
2023/03/23 00:08:31;;;;;;;2.77;1.67;;;12.50;99.90;;;;;;4978702;28;20206;-74
2023/03/23 00:10:57;;;;;;;1.97;1.77;;;12.50;99.90;;;;;;4996424;28;20203;-74
2023/03/23 00:13:24;;;;;;;2.30;2.07;;;12.50;99.90;;;;;;4997042;28;20200;-75
2023/03/23 00:15:51;;;;;;;2.00;1.60;;;12.40;99.90;;;;;;4997209;28;20204;-73
2023/03/23 00:18:21;;;;;;;3.03;1.73;;;12.40;99.90;;;;;;4997304;28;20671;-75
2023/03/23 00:20:52;;;;;;;3.10;1.80;;;12.30;99.90;;;;;;4995887;28;20208;-74
2023/03/23 00:23:19;;;;;;;1.97;1.47;;;12.30;99.90;;;;;;4996928;28;20206;-73
2023/03/23 00:25:46;;;;;;;3.83;1.80;;;12.20;99.90;;;;;;4997290;28;20208;-72
2023/03/23 00:28:12;;;;;;;2.33;1.80;;;12.20;99.90;;;;;;4997091;28;20238;-72
2023/03/23 00:30:38;;;;;;;3.33;1.90;;;12.20;99.90;;;;;;4996764;28;20887;-73
2023/03/23 00:33:04;;;;;;;1.73;1.63;;;12.10;99.90;;;;;;4977771;28;20255;-73
2023/03/23 00:35:30;;;;;;;4.57;1.90;;;12.10;99.90;;;;;;4978378;28;20674;-73
2023/03/23 00:37:58;;;;;;;3.70;2.10;;;12.10;99.90;;;;;;4978623;28;20238;-74
2023/03/23 00:40:24;;;;;;;2.77;1.97;;;12.10;99.90;;;;;;4984314;28;20231;-73
2023/03/23 00:42:49;;;;;;;2.13;1.93;;;12.00;99.90;;;;;;4987962;28;20233;-73
2023/03/23 00:45:16;;;;;;;1.73;1.30;;;12.00;99.90;;;;;;4987703;28;20225;-73
2023/03/23 00:47:46;;;;;;;2.87;1.90;;;11.90;99.90;;;;;;4986057;28;20202;-72
2023/03/23 00:50:13;;;;;;;2.90;2.00;;;11.90;99.90;;;;;;4987140;28;20265;-73
2023/03/23 00:52:39;;;;;;;2.87;2.00;;;11.80;99.90;;;;;;4987444;28;20207;-74
2023/03/23 00:55:05;;;;;;;4.13;1.80;;;11.80;99.90;;;;;;4987700;28;20207;-72
2023/03/23 00:57:31;;;;;;;1.93;1.83;;;11.80;99.90;;;;;;4985538;28;20210;-73
2023/03/23 00:59:57;;;;;;;2.17;1.97;;;11.70;99.90;;;;;;4987591;28;20272;-74
2023/03/23 01:02:24;;;;;;;4.50;1.90;;;11.70;99.90;;;;;;4987132;28;20290;-74
2023/03/23 01:04:52;;;;;;;3.37;1.80;;;11.70;99.90;;;;;;4986714;28;20213;-75
2023/03/23 01:07:20;;;;;;;2.67;1.87;;;11.70;99.90;;;;;;4988754;28;20256;-74
2023/03/23 01:09:47;;;;;;;1.93;1.83;;;11.70;99.90;;;;;;4985515;28;20257;-72
2023/03/23 01:12:14;;;;;;;3.63;2.70;;;11.60;99.90;;;;;;4988887;28;20307;-73
2023/03/23 01:14:40;;;;;;;2.57;2.23;;;11.60;99.90;;;;;;4987711;28;20206;-72
2023/03/23 01:17:06;;;;;;;2.10;1.90;;;11.60;99.90;;;;;;4988125;28;20195;-73
2023/03/23 01:19:31;;;;;;;2.53;2.00;;;11.60;99.90;;;;;;4987729;28;20601;-73
2023/03/23 01:21:57;;;;;;;1.90;1.80;;;11.60;99.90;;;;;;4986490;28;20746;-73
2023/03/23 01:24:22;;;;;;;1.93;1.83;;;11.60;99.90;;;;;;4986973;28;20210;-72
2023/03/23 01:26:48;;;;;;;2.40;2.20;;;11.60;99.90;;;;;;4986992;28;20203;-74
2023/03/23 01:29:13;;;;;;;4.37;1.90;;;11.50;99.90;;;;;;4988154;28;20197;-72
2023/03/23 01:31:39;;;;;;;2.30;2.17;;;11.50;99.90;;;;;;4987874;28;20207;-73
2023/03/23 01:34:05;;;;;;;1.73;1.60;;;11.50;99.90;;;;;;4985696;28;20235;-73
2023/03/23 01:36:32;;;;;;;2.43;2.10;;;11.50;99.90;;;;;;4987250;28;20677;-73
2023/03/23 01:38:58;;;;;;;1.43;1.37;;;11.50;99.90;;;;;;4987273;28;20212;-72
2023/03/23 01:41:24;;;;;;;2.57;2.13;;;11.50;99.90;;;;;;4987507;28;20202;-74
2023/03/23 01:43:53;;;;;;;3.97;1.93;;;11.50;99.90;;;;;;4987836;28;20595;-77
2023/03/23 01:46:22;;;;;;;2.37;1.90;;;11.50;99.90;;;;;;4986829;28;20201;-78
2023/03/23 01:48:48;;;;;;;1.97;1.80;;;11.50;99.90;;;;;;4986158;28;20205;-74
2023/03/23 01:51:17;;;;;;;2.27;2.07;;;11.50;99.90;;;;;;4985965;28;20196;-80
2023/03/23 01:53:47;;;;;;;2.17;1.97;;;11.50;99.90;;;;;;4985547;28;20262;-72
2023/03/23 01:56:18;;;;;;;2.60;2.00;;;11.60;99.90;;;;;;4985385;28;20214;-71
2023/03/23 01:58:45;;;;;;;2.13;1.93;;;11.50;99.90;;;;;;4985665;28;20627;-72
2023/03/23 02:01:14;;;;;;;3.07;2.00;;;11.50;99.90;;;;;;4986126;28;20206;-72
2023/03/23 02:03:43;;;;;;;2.23;2.00;;;11.60;99.90;;;;;;4984187;28;20226;-71
2023/03/23 02:06:09;;;;;;;2.90;2.13;;;11.60;99.90;;;;;;4986628;28;20207;-73
2023/03/23 02:08:36;;;;;;;1.60;1.50;;;11.50;99.90;;;;;;4987013;28;20265;-72
2023/03/23 02:11:07;;;;;;;2.00;1.90;;;11.50;99.90;;;;;;4984755;28;20204;-72
2023/03/23 02:13:33;;;;;;;2.20;2.00;;;11.50;99.90;;;;;;4986054;28;20210;-72
2023/03/23 02:16:27;;;;;;;1.87;1.77;;;11.50;99.90;;;;;;4985017;28;20260;-72
2023/03/23 02:19:12;;;;;;;3.57;1.80;;;11.50;99.90;;;;;;4951422;28;20237;-72
2023/03/23 02:21:37;;;;;;;2.40;2.20;;;11.50;99.90;;;;;;4987764;28;20215;-72
2023/03/23 02:24:27;;;;;;;2.00;1.73;;;11.60;99.90;;;;;;4986776;28;20620;-72
2023/03/23 02:27:25;;;;;;;2.60;1.77;;;11.60;99.90;;;;;;4985973;28;20205;-72
2023/03/23 02:30:10;;;;;;;3.23;2.40;;;11.60;99.90;;;;;;4991847;28;20268;-72
2023/03/23 02:33:08;;;;;;;2.97;1.80;;;11.60;99.90;;;;;;4994299;28;20862;-71
2023/03/23 02:35:41;;;;;;;2.20;1.70;;;11.70;99.90;;;;;;4994621;28;20210;-71
2023/03/23 02:38:13;;;;;;;3.13;1.87;;;11.70;99.90;;;;;;4995490;28;20797;-72
2023/03/23 02:40:46;;;;;;;2.00;1.40;;;11.70;99.90;;;;;;4995115;28;20347;-71
2023/03/23 02:43:15;;;;;;;2.03;1.83;;;11.70;99.90;;;;;;4995840;28;20904;-72
2023/03/23 02:45:43;;;;;;;2.50;2.27;;;11.70;99.90;;;;;;4994395;28;20210;-71
2023/03/23 02:48:12;;;;;;;1.87;1.67;;;11.70;99.90;;;;;;4995202;28;20222;-72
2023/03/23 02:50:42;;;;;;;2.23;2.13;;;11.60;99.90;;;;;;4995440;28;20199;-72
2023/03/23 02:53:10;;;;;;;2.20;2.00;;;11.50;99.90;;;;;;4978420;28;20220;-71
2023/03/23 02:55:41;;;;;;;2.53;2.33;;;11.50;99.90;;;;;;4993261;28;20243;-71
2023/03/23 02:58:11;;;;;;;2.20;2.00;;;11.50;99.90;;;;;;4995599;28;20206;-72
2023/03/23 03:00:37;;;;;;;2.57;1.60;;;11.50;99.90;;;;;;4995522;28;20282;-72
2023/03/23 03:03:04;;;;;;;2.33;1.90;;;11.50;99.90;;;;;;4993127;28;20699;-73
2023/03/23 03:05:54;;;;;;;2.67;2.30;;;11.50;99.90;;;;;;4995515;28;20620;-72
2023/03/23 03:08:30;;;;;;;1.77;1.67;;;11.50;99.90;;;;;;4993284;28;20719;-71
2023/03/23 03:11:03;;;;;;;2.37;2.27;;;11.60;99.90;;;;;;4994704;28;20213;-72
2023/03/23 03:13:40;;;;;;;2.30;2.10;;;11.50;99.90;;;;;;4994725;28;20210;-72
2023/03/23 03:16:16;;;;;;;2.40;2.20;;;11.60;99.90;;;;;;4995481;28;20205;-74
2023/03/23 03:18:55;;;;;;;1.77;1.53;;;11.60;99.90;;;;;;4995637;28;20561;-74
2023/03/23 03:21:25;;;;;;;3.13;2.20;;;11.60;99.90;;;;;;4995355;28;20312;-73
2023/03/23 03:23:55;;;;;;;1.63;1.57;;;11.60;99.90;;;;;;4994451;28;20270;-74
2023/03/23 03:26:26;;;;;;;2.93;2.47;;;11.60;99.90;;;;;;4993484;28;20332;-74
2023/03/23 03:28:53;;;;;;;2.13;2.00;;;11.60;99.90;;;;;;4999180;28;20206;-75
2023/03/23 03:31:27;;;;;;;3.83;1.90;;;11.60;99.90;;;;;;4992253;28;20745;-74
2023/03/23 03:33:53;;;;;;;2.00;1.83;;;11.60;99.90;;;;;;4991131;28;20230;-74
2023/03/23 03:36:23;;;;;;;2.03;1.70;;;11.50;99.90;;;;;;4989128;28;20208;-73
2023/03/23 03:38:51;;;;;;;3.97;2.10;;;11.60;99.90;;;;;;4988095;28;20219;-73
2023/03/23 03:41:18;;;;;;;1.97;1.87;;;11.60;99.90;;;;;;4988569;28;20218;-73
2023/03/23 03:43:43;;;;;;;2.53;2.10;;;11.50;99.90;;;;;;4986765;28;20298;-72
2023/03/23 03:46:09;;;;;;;2.43;2.27;;;11.40;99.90;;;;;;4988500;28;20279;-71
2023/03/23 03:48:35;;;;;;;3.07;2.13;;;11.40;99.90;;;;;;4990210;28;20235;-71
2023/03/23 03:51:01;;;;;;;3.07;2.27;;;11.30;99.90;;;;;;4989229;28;20222;-72
2023/03/23 03:53:28;;;;;;;2.87;2.50;;;11.30;99.90;;;;;;4989070;28;20196;-72
2023/03/23 03:55:59;;;;;;;2.47;1.87;;;11.30;99.90;;;;;;4987252;28;20214;-72
2023/03/23 03:58:31;;;;;;;3.17;2.03;;;11.30;99.90;;;;;;4988130;28;20717;-72
2023/03/23 04:00:59;;;;;;;2.00;1.60;;;11.40;99.90;;;;;;4988637;28;20540;-72
2023/03/23 04:03:27;;;;;;;2.40;2.20;;;11.40;99.90;;;;;;4989038;28;20281;-71
2023/03/23 04:05:54;;;;;;;4.07;2.47;;;11.40;99.90;;;;;;4992514;28;20198;-73
2023/03/23 04:08:21;;;;;;;3.37;2.00;;;11.40;99.90;;;;;;4989809;28;20825;-72
2023/03/23 04:10:47;;;;;;;3.17;2.00;;;11.40;99.90;;;;;;4988689;28;20206;-73
2023/03/23 04:13:13;;;;;;;3.33;1.83;;;11.40;99.90;;;;;;4988474;28;20282;-73
2023/03/23 04:15:39;;;;;;;2.73;2.27;;;11.50;99.90;;;;;;4986190;28;20229;-72
2023/03/23 04:18:05;;;;;;;2.30;2.07;;;11.50;99.90;;;;;;4987759;28;20207;-71
2023/03/23 04:20:31;;;;;;;2.50;2.30;;;11.50;99.90;;;;;;4987902;28;20201;-71
2023/03/23 04:22:57;;;;;;;2.67;1.97;;;11.50;99.90;;;;;;4988075;28;20195;-72
2023/03/23 04:25:22;;;;;;;1.80;1.70;;;11.60;99.90;;;;;;4989459;28;20222;-72
2023/03/23 04:27:54;;;;;;;4.17;2.30;;;11.60;99.90;;;;;;4986959;28;20209;-71
2023/03/23 04:30:22;;;;;;;2.47;2.27;;;11.60;99.90;;;;;;4988355;28;20687;-72
2023/03/23 04:32:50;;;;;;;2.87;2.67;;;11.60;99.90;;;;;;4988985;28;20259;-71
2023/03/23 04:35:19;;;;;;;2.47;2.27;;;11.60;99.90;;;;;;4989220;28;20206;-75
2023/03/23 04:37:45;;;;;;;3.20;2.30;;;11.60;99.90;;;;;;4986643;28;20229;-74
2023/03/23 04:40:14;;;;;;;2.20;2.00;;;11.50;99.90;;;;;;4987493;28;20318;-81
2023/03/23 04:42:41;;;;;;;2.37;1.87;;;11.50;99.90;;;;;;4988039;28;20212;-72
2023/03/23 04:45:08;;;;;;;1.87;1.77;;;11.50;99.90;;;;;;4989920;28;20287;-72
2023/03/23 04:47:39;;;;;;;2.57;2.17;;;11.50;99.90;;;;;;4986354;28;20207;-70
2023/03/23 04:50:11;;;;;;;3.60;2.87;;;11.50;99.90;;;;;;4989127;28;20284;-71
2023/03/23 04:52:38;;;;;;;3.83;2.77;;;11.40;99.90;;;;;;4987464;28;20206;-72
2023/03/23 04:55:08;;;;;;;2.90;2.60;;;11.30;99.90;;;;;;4979939;28;20207;-72
2023/03/23 04:57:35;;;;;;;4.97;2.10;;;11.30;99.90;;;;;;4977859;28;20661;-73
2023/03/23 05:00:08;;;;;;;3.20;2.47;;;11.30;99.90;;;;;;4978022;28;20211;-73
2023/03/23 05:02:39;;;;;;;2.23;2.07;;;11.20;99.90;;;;;;4977863;28;20285;-73
2023/03/23 05:05:06;;;;;;;4.33;2.33;;;11.20;99.90;;;;;;4989991;28;20226;-73
2023/03/23 05:07:31;;;;;;;3.90;2.17;;;11.20;99.90;;;;;;4996797;28;20332;-73
2023/03/23 05:09:57;;;;;;;2.33;2.07;;;11.10;99.90;;;;;;4997301;28;20204;-73
2023/03/23 05:12:22;;;;;;;4.07;2.20;;;11.20;99.90;;;;;;4996986;28;20213;-72
2023/03/23 05:14:48;;;;;;;4.37;2.37;;;11.10;99.90;;;;;;4996917;28;20198;-72
2023/03/23 05:17:16;;;;;;;3.60;3.30;;;11.10;99.90;;;;;;4985652;28;20203;-71
2023/03/23 05:19:43;;;;;;;3.23;2.77;;;11.10;99.90;;;;;;4986722;28;20218;-71
2023/03/23 05:22:09;;;;;;;2.73;2.40;;;11.10;99.90;;;;;;4987340;28;20291;-72
2023/03/23 05:24:34;;;;;;;3.20;2.83;;;11.10;99.90;;;;;;4986828;28;21011;-72
2023/03/23 05:27:00;;;;;;;3.00;2.30;;;11.10;99.90;;;;;;4979881;28;20614;-71
2023/03/23 05:29:26;;;;;;;2.50;2.30;;;11.00;99.90;;;;;;4975313;28;20201;-72
2023/03/23 05:31:52;;;;;;;2.47;2.27;;;11.10;99.90;;;;;;4977224;28;20672;-73
2023/03/23 05:34:18;;;;;;;2.80;1.93;;;11.10;99.90;;;;;;4976791;28;20235;-72
2023/03/23 05:36:44;;;;;;;3.03;2.43;;;11.10;99.90;;;;;;4977934;28;20218;-72
2023/03/23 05:39:14;;;;;;;6.77;2.40;;;11.10;99.90;;;;;;4977136;28;20207;-72
2023/03/23 05:41:40;;;;;;;7.73;2.23;;;11.20;99.90;;;;;;4992225;28;20701;-71
2023/03/23 05:44:05;;;;;;;4.17;2.10;;;11.10;99.90;;;;;;4996231;28;20329;-72
2023/03/23 05:46:31;;;;;;;3.30;1.97;;;11.10;99.90;;;;;;4996164;28;20285;-71
2023/03/23 05:48:56;;;;;;;2.13;1.93;;;11.00;99.90;;;;;;4996211;28;20676;-73
2023/03/23 05:51:22;;;;;;;3.57;2.20;;;10.90;99.90;;;;;;4994917;28;20742;-71
2023/03/23 05:53:48;;;;;;;3.83;2.27;;;10.80;99.90;;;;;;4995864;28;20210;-71
2023/03/23 05:56:14;;;;;;;3.00;2.20;;;10.70;99.90;;;;;;4995478;28;20198;-71
2023/03/23 05:58:39;;;;;;;2.53;2.10;;;10.60;99.90;;;;;;4996075;28;20210;-72
2023/03/23 06:01:08;;;;;;;3.07;2.00;;;10.50;99.90;;;;;;4995705;28;20877;-72
2023/03/23 06:03:35;;;;;;;3.03;2.13;;;10.50;99.90;;;;;;4993350;28;20206;-72
2023/03/23 06:06:02;;;;;;;4.73;2.20;;;10.40;99.90;;;;;;4996032;28;20204;-72
2023/03/23 06:08:28;;;;;;;4.37;2.50;;;10.30;99.90;;;;;;4995636;28;20311;-72
2023/03/23 06:10:55;;;;;;;4.17;2.20;;;10.20;99.90;;;;;;4995909;28;20289;-71
2023/03/23 06:13:20;;;;;;;2.63;2.27;;;10.30;99.90;;;;;;4996004;28;20234;-72
2023/03/23 06:15:47;;;;;;;3.40;2.43;;;10.20;99.90;;;;;;4993822;28;20709;-72
2023/03/23 06:18:12;;;;;;;5.17;2.40;;;10.20;99.90;;;;;;4996158;28;20579;-72
2023/03/23 06:20:38;;;;;;;5.10;2.53;;;10.20;99.90;;;;;;4995926;28;20667;-72
2023/03/23 06:23:04;;;;;;;4.50;2.40;;;10.10;99.90;;;;;;4995710;28;20205;-72
2023/03/23 06:25:30;;;;;;;2.93;2.63;;;10.20;99.90;;;;;;4991114;28;20220;-71
2023/03/23 06:27:55;;;;;;;3.93;2.43;;;10.10;99.90;;;;;;4974700;28;20629;-73
2023/03/23 06:30:21;;;;;;;5.07;2.33;;;10.10;99.90;;;;;;4977027;28;20205;-71
2023/03/23 06:32:47;;;;;;;2.83;2.43;;;10.10;99.90;;;;;;4976209;28;20300;-70
2023/03/23 06:35:14;;;;;;;3.03;2.20;;;10.20;99.90;;;;;;4982823;28;20218;-71
2023/03/23 06:37:40;;;;;;;4.80;3.27;;;10.10;99.90;;;;;;4991291;28;20222;-72
2023/03/23 06:40:07;;;;;;;3.53;2.67;;;10.20;99.90;;;;;;4993224;28;20211;-71
2023/03/23 06:42:33;;;;;;;3.40;2.60;;;10.10;99.90;;;;;;4995992;28;20216;-70
2023/03/23 06:45:00;;;;;;;4.07;3.33;;;10.10;99.90;;;;;;4985729;28;20291;-71
2023/03/23 06:47:27;;;;;;;3.47;2.40;;;10.20;99.90;;;;;;4984622;28;20681;-71
2023/03/23 06:49:52;;;;;;;5.67;3.87;;;10.20;99.90;;;;;;4984236;28;20212;-71
2023/03/23 06:52:18;;;;;;;4.57;3.40;;;10.20;99.90;;;;;;4984363;28;20207;-72
2023/03/23 06:54:44;;;;;;;4.27;2.30;;;10.20;99.90;;;;;;4983429;28;20669;-72
2023/03/23 06:57:10;;;;;;;5.10;3.73;;;10.20;99.90;;;;;;4984467;28;20212;-71
2023/03/23 06:59:35;;;;;;;3.83;2.60;;;10.10;99.90;;;;;;4987285;28;20199;-70
2023/03/23 07:02:01;;;;;;;8.10;3.97;;;10.10;99.90;;;;;;4985668;28;20320;-69
2023/03/23 07:04:26;;;;;;;9.33;3.57;;;10.20;99.90;;;;;;4985176;28;20213;-74
2023/03/23 07:06:52;;;;;;;8.70;5.30;;;10.20;99.90;;;;;;4999984;28;20659;-74
2023/03/23 07:09:17;;;;;;;4.87;2.97;;;10.20;99.90;;;;;;4995364;28;20207;-71
2023/03/23 07:11:43;;;;;;;4.47;3.13;;;10.20;99.90;;;;;;4979115;28;20211;-72
2023/03/23 07:14:09;;;;;;;3.30;3.00;;;10.20;99.90;;;;;;4978843;28;20225;-72
2023/03/23 07:16:34;;;;;;;3.57;3.07;;;10.20;99.90;;;;;;4987616;28;20294;-72
2023/03/23 07:19:00;;;;;;;3.13;2.83;;;10.20;99.90;;;;;;4993831;28;20208;-73
2023/03/23 07:21:26;;;;;;;3.30;2.50;;;10.30;99.90;;;;;;4978790;28;20215;-70
2023/03/23 07:23:52;;;;;;;3.60;2.80;;;10.30;99.90;;;;;;4978742;28;20226;-69
2023/03/23 07:26:17;;;;;;;5.33;3.53;;;10.20;99.90;;;;;;4979538;28;20280;-68
2023/03/23 07:28:43;;;;;;;3.77;3.13;;;10.30;99.90;;;;;;4982597;28;20753;-71
2023/03/23 07:31:09;;;;;;;7.43;3.43;;;10.30;99.90;;;;;;4995505;28;20773;-70
2023/03/23 07:33:35;;;;;;;4.73;2.97;;;10.40;99.90;;;;;;4998191;28;20228;-69
2023/03/23 07:36:02;;;;;;;3.67;2.43;;;10.50;99.90;;;;;;4993026;28;20202;-68
2023/03/23 07:38:29;;;;;;;4.37;3.40;;;10.50;99.90;;;;;;4986686;28;20240;-69
2023/03/23 07:40:56;;;;;;;6.13;3.63;;;10.60;99.90;;;;;;4989366;28;20673;-69
2023/03/23 07:43:22;;;;;;;6.10;2.63;;;10.60;99.90;;;;;;4985027;28;20214;-67
2023/03/23 07:45:47;;;;;;;6.60;3.33;;;10.70;99.90;;;;;;4988243;28;20217;-68
2023/03/23 07:48:13;;;;;;;6.37;2.87;;;10.70;99.90;;;;;;4987796;28;20274;-67
2023/03/23 07:50:40;;;;;;;2.87;2.37;;;10.80;99.90;;;;;;4987656;28;20207;-68
2023/03/23 07:53:05;;;;;;;7.33;3.23;;;10.90;99.90;;;;;;4987608;28;20693;-68
2023/03/23 07:55:31;;;;;;;5.33;2.87;;;10.90;99.90;;;;;;4988716;28;20199;-69
2023/03/23 07:57:57;;;;;;;2.67;2.37;;;11.00;99.90;;;;;;4997219;28;20218;-71
2023/03/23 08:00:23;;;;;;;3.23;2.43;;;11.00;99.90;;;;;;4997507;28;20211;-68
2023/03/23 08:02:57;;;;;;;2.77;2.57;;;11.00;99.90;;;;;;4997656;28;20199;-68
2023/03/23 08:05:25;;;;;;;2.23;2.03;;;11.00;99.90;;;;;;4996734;28;20237;-68
2023/03/23 08:07:53;;;;;;;4.43;2.90;;;11.00;99.90;;;;;;4996712;28;20203;-67
2023/03/23 08:10:21;;;;;;;3.43;3.13;;;11.00;99.90;;;;;;4979881;28;20210;-72
2023/03/23 08:12:52;;;;;;;3.40;3.10;;;11.10;99.90;;;;;;4995095;28;20205;-67
2023/03/23 08:15:19;;;;;;;5.77;3.13;;;11.10;99.90;;;;;;4996839;28;20206;-67
2023/03/23 08:17:44;;;;;;;4.47;2.83;;;11.10;99.90;;;;;;4996558;28;20691;-67
2023/03/23 08:20:15;;;;;;;4.70;2.47;;;11.10;99.90;;;;;;4992859;28;20222;-67
2023/03/23 08:22:42;;;;;;;3.27;2.97;;;11.20;99.90;;;;;;4992533;28;20194;-67
2023/03/23 08:25:10;;;;;;;5.03;3.00;;;11.30;99.90;;;;;;4989619;28;20218;-66
2023/03/23 08:27:35;;;;;;;7.83;3.50;;;11.40;99.90;;;;;;4997693;28;20248;-66
2023/03/23 08:30:01;;;;;;;3.57;2.83;;;11.40;99.90;;;;;;4997283;28;20241;-66
2023/03/23 08:32:27;;;;;;;3.23;2.97;;;11.40;99.90;;;;;;4996922;28;20233;-67
2023/03/23 08:34:52;;;;;;;3.40;2.80;;;11.50;99.90;;;;;;4996271;28;20447;-69
2023/03/23 08:37:18;;;;;;;2.37;2.17;;;11.50;99.90;;;;;;4978340;28;20228;-67
2023/03/23 08:39:44;;;;;;;3.07;2.57;;;11.60;99.90;;;;;;4980766;28;20279;-67
2023/03/23 08:42:10;;;;;;;3.03;2.83;;;11.80;99.90;;;;;;4979877;28;20216;-67
2023/03/23 08:44:36;;;;;;;2.77;1.93;;;11.90;99.90;;;;;;4978723;28;20221;-67
2023/03/23 08:47:03;;;;;;;5.40;2.47;;;12.10;99.90;;;;;;4977837;28;20566;-67
2023/03/23 08:49:32;;;;;;;2.93;2.30;;;12.10;99.90;;;;;;4975981;28;20208;-67
2023/03/23 08:51:58;;;;;;;2.30;2.13;;;12.20;99.90;;;;;;4980152;28;20210;-67
2023/03/23 08:54:23;;;;;;;3.53;1.63;;;12.40;99.90;;;;;;4977609;28;21683;-67
2023/03/23 08:56:49;;;;;;;2.57;2.23;;;12.40;99.90;;;;;;4978588;28;20243;-67
2023/03/23 08:59:14;;;;;;;2.20;2.00;;;12.40;99.90;;;;;;4977754;28;20678;-67
2023/03/23 09:01:40;;;;;;;6.37;2.30;;;12.40;99.90;;;;;;4976011;28;20304;-67
2023/03/23 09:04:06;;;;;;;2.80;1.97;;;12.50;99.90;;;;;;4978081;28;20221;-68
2023/03/23 09:06:33;;;;;;;2.50;1.83;;;12.60;99.90;;;;;;4977619;28;20609;-67
2023/03/23 09:09:00;;;;;;;2.93;1.80;;;12.70;99.90;;;;;;4985329;28;20589;-67
2023/03/23 09:11:26;;;;;;;2.90;1.90;;;12.70;99.90;;;;;;4995654;28;20285;-73
2023/03/23 09:13:51;;;;;;;2.87;1.90;;;12.60;99.90;;;;;;4994522;28;20346;-78
2023/03/23 09:16:17;;;;;;;3.23;1.97;;;12.60;99.90;;;;;;4996128;28;20216;-70
2023/03/23 09:18:42;;;;;;;1.90;1.67;;;12.60;99.90;;;;;;4984579;28;20242;-70
2023/03/23 09:21:08;;;;;;;1.97;1.53;;;12.70;99.90;;;;;;4986063;28;20216;-66
2023/03/23 09:23:34;;;;;;;1.83;1.73;;;12.80;99.90;;;;;;4959938;28;20530;-67
2023/03/23 09:26:01;;;;;;;2.97;1.90;;;13.00;99.90;;;;;;4976639;28;20200;-67
2023/03/23 09:28:27;;;;;;;1.80;1.70;;;13.00;99.90;;;;;;4976483;28;20228;-68
2023/03/23 09:30:57;;;;;;;3.60;2.40;;;13.10;99.90;;;;;;4985504;28;20220;-67
2023/03/23 09:33:23;;;;;;;2.20;2.00;;;13.20;99.90;;;;;;4978165;28;20232;-67
2023/03/23 09:35:48;;;;;;;2.60;1.70;;;13.30;99.90;;;;;;4977932;28;20201;-68
2023/03/23 09:38:14;;;;;;;1.90;1.80;;;13.50;99.90;;;;;;4975412;28;20746;-68
2023/03/23 09:40:48;;;;;;;2.87;1.80;;;13.50;99.90;;;;;;4977359;28;20197;-68
2023/03/23 09:43:39;;;;;;;1.70;1.60;;;13.60;99.90;;;;;;4977458;28;20246;-67
2023/03/23 09:46:14;;;;;;;4.23;2.03;;;13.60;99.90;;;;;;4962852;28;20241;-68
2023/03/23 09:48:56;;;;;;;1.63;1.53;;;13.70;99.90;;;;;;4975244;28;20286;-68
2023/03/23 09:51:40;;;;;;;2.13;1.87;;;13.90;99.90;;;;;;4976853;28;20212;-68
2023/03/23 09:54:26;;;;;;;1.83;1.20;;;14.00;99.90;;;;;;4976973;28;20282;-70
2023/03/23 09:56:54;;;;;;;1.63;1.53;;;14.20;99.90;;;;;;4976807;28;20213;-69
2023/03/23 09:59:27;;;;;;;3.17;1.67;;;14.40;99.90;;;;;;4976795;28;20223;-68
2023/03/23 10:02:02;;;;;;;1.57;1.27;;;14.40;99.90;;;;;;4976888;28;20309;-69
2023/03/23 10:05:04;;;;;;;3.03;1.60;;;14.40;99.90;;;;;;4981932;28;20219;-68
2023/03/23 10:07:29;;;;;;;2.00;1.20;;;14.50;99.90;;;;;;4985818;28;20260;-70
2023/03/23 10:09:57;;;;;;;1.60;1.50;;;14.40;99.90;;;;;;4995820;28;20199;-70
2023/03/23 10:12:59;;;;;;;1.67;1.43;;;14.40;99.90;;;;;;4995045;28;20203;-68
2023/03/23 10:15:31;;;;;;;1.50;0.93;;;14.20;99.90;;;;;;4994426;28;20213;-68
2023/03/23 10:18:08;;;;;;;1.37;1.27;;;14.20;99.90;;;;;;4996539;28;20230;-68
2023/03/23 10:20:47;;;;;;;1.80;1.70;;;14.40;99.90;;;;;;4992476;28;20200;-68
2023/03/23 10:23:18;;;;;;;1.67;1.57;;;14.40;99.90;;;;;;4995153;28;20219;-68
2023/03/23 10:25:53;;;;;;;1.43;1.33;;;14.50;99.90;;;;;;4993893;28;20203;-67
2023/03/23 10:28:34;;;;;;;1.87;1.77;;;14.60;99.90;;;;;;4995579;28;20203;-69
2023/03/23 10:31:01;;;;;;;1.47;1.37;;;14.70;99.90;;;;;;4993439;28;20291;-68
2023/03/23 10:33:42;;;;;;;1.30;1.20;;;14.80;99.90;;;;;;4986493;28;20232;-68
2023/03/23 10:36:35;;;;;;;4.70;1.53;;;14.90;99.90;;;;;;4984879;28;20226;-68
2023/03/23 10:39:12;;;;;;;3.30;1.83;;;15.00;99.90;;;;;;4989439;28;20596;-68
2023/03/23 10:41:38;;;;;;;2.17;1.67;;;15.10;99.90;;;;;;4988290;28;20207;-71
2023/03/23 10:44:19;;;;;;;1.63;1.50;;;15.30;99.90;;;;;;4988613;28;20242;-68
2023/03/23 10:47:05;;;;;;;1.60;1.50;;;15.10;99.90;;;;;;4987699;28;20208;-67
2023/03/23 10:49:39;;;;;;;2.67;1.50;;;15.00;99.90;;;;;;4987421;28;20254;-68
2023/03/23 10:52:37;;;;;;;1.87;1.37;;;15.10;99.90;;;;;;4988796;28;20204;-70
2023/03/23 10:55:11;;;;;;;2.77;1.17;;;15.10;99.90;;;;;;4988837;28;20537;-68
2023/03/23 10:57:40;;;;;;;1.50;1.40;;;15.10;99.90;;;;;;4988616;28;20204;-70
2023/03/23 11:00:07;;;;;;;1.20;1.20;;;15.10;99.90;;;;;;4986808;28;21084;-68
2023/03/23 11:02:39;;;;;;;1.50;1.40;;;15.00;99.90;;;;;;4989063;28;20216;-69
2023/03/23 11:05:19;;;;;;;1.40;1.30;;;15.10;99.90;;;;;;4989189;28;20765;-78
2023/03/23 11:07:53;;;;;;;2.70;1.30;;;15.10;99.90;;;;;;4995671;28;20199;-68
2023/03/23 11:10:27;;;;;;;2.37;1.30;;;15.00;99.90;;;;;;4999069;28;20413;-68
2023/03/23 11:12:57;;;;;;;2.60;1.30;;;15.00;99.90;;;;;;4999055;28;20704;-71
2023/03/23 11:15:37;;;;;;;1.40;1.30;;;15.00;99.90;;;;;;4995472;28;20208;-70
2023/03/23 11:18:07;;;;;;;1.70;1.30;;;15.00;99.90;;;;;;4982727;28;20212;-68
2023/03/23 11:20:39;;;;;;;2.40;1.37;;;15.10;99.90;;;;;;4980846;28;20676;-70
2023/03/23 11:23:22;;;;;;;2.00;1.37;;;15.10;99.90;;;;;;4987299;28;20824;-68
2023/03/23 11:26:09;;;;;;;1.87;1.13;;;15.00;99.90;;;;;;4980150;28;20501;-74
2023/03/23 11:28:43;;;;;;;4.23;1.53;;;15.20;99.90;;;;;;4979782;28;20209;-68
2023/03/23 11:31:09;;;;;;;1.50;1.27;;;15.40;99.90;;;;;;4961200;28;20275;-68
2023/03/23 11:33:57;;;;;;;2.23;1.60;;;15.50;99.90;;;;;;4980728;28;20240;-66
2023/03/23 11:36:36;;;;;;;3.53;1.33;;;15.60;99.90;;;;;;4971620;28;20204;-67
2023/03/23 11:39:04;;;;;;;2.70;1.63;;;15.60;99.90;;;;;;4988833;28;20196;-66
2023/03/23 11:41:34;;;;;;;3.50;1.40;;;15.40;99.90;;;;;;4988178;28;20332;-67
2023/03/23 11:44:09;;;;;;;2.40;1.43;;;15.30;99.90;;;;;;4990196;28;20208;-67
2023/03/23 11:46:55;;;;;;;2.20;1.70;;;15.30;99.90;;;;;;4997602;28;20210;-66
2023/03/23 11:49:33;;;;;;;1.73;1.30;;;15.40;99.90;;;;;;4979273;28;20234;-66
2023/03/23 11:52:13;;;;;;;1.63;1.47;;;15.40;99.90;;;;;;4985941;28;20704;-67
2023/03/23 11:54:46;;;;;;;1.53;1.43;;;15.30;99.90;;;;;;4991761;28;20364;-67
2023/03/23 11:57:13;;;;;;;2.73;1.50;;;15.40;99.90;;;;;;4997118;28;20207;-67
2023/03/23 11:59:40;;;;;;;2.00;1.57;;;15.60;99.90;;;;;;4996111;28;20283;-66
2023/03/23 12:02:52;;;;;;;3.77;1.13;;;15.60;99.90;;;;;;4992464;28;20247;-67
2023/03/23 12:05:53;;;;;;;1.90;1.47;;;15.70;99.90;;;;;;4986455;28;20269;-69
2023/03/23 12:08:32;;;;;;;1.07;1.00;;;15.60;99.90;;;;;;4934512;28;20204;-70
2023/03/23 12:11:07;;;;;;;1.30;1.07;;;15.60;99.90;;;;;;4995033;28;20862;-68
2023/03/23 12:14:10;;;;;;;2.30;1.40;;;15.50;99.90;;;;;;4988413;28;20212;-66
2023/03/23 12:16:53;;;;;;;2.37;1.47;;;15.60;99.90;;;;;;4926803;29;20202;-66
2023/03/23 12:19:47;;;;;;;3.63;1.47;;;15.60;99.90;;;;;;4975239;28;20224;-68
2023/03/23 12:22:21;;;;;;;1.30;1.23;;;15.50;99.90;;;;;;4988076;28;20250;-66
2023/03/23 12:25:34;;;;;;;1.23;1.20;;;15.60;99.90;;;;;;4987260;28;20678;-67
2023/03/23 12:28:22;;;;;;;2.87;1.80;;;15.50;99.90;;;;;;4983461;28;20714;-66
2023/03/23 12:31:10;;;;;;;1.70;1.60;;;15.50;99.90;;;;;;4986045;28;20228;-66
2023/03/23 12:34:00;;;;;;;3.20;1.33;;;15.40;99.90;;;;;;4986859;28;20251;-66
2023/03/23 12:36:41;;;;;;;1.47;1.37;;;15.60;99.90;;;;;;4989325;28;20681;-66
2023/03/23 12:39:41;;;;;;;2.77;1.70;;;15.70;99.90;;;;;;4987265;28;20404;-64
2023/03/23 12:42:23;;;;;;;3.43;1.40;;;15.70;99.90;;;;;;4985581;28;20631;-65
2023/03/23 12:45:19;;;;;;;3.83;1.70;;;15.80;99.90;;;;;;4986793;28;20217;-66
2023/03/23 12:48:01;;;;;;;2.20;1.43;;;15.80;99.90;;;;;;4987074;28;20217;-67
2023/03/23 12:50:42;;;;;;;1.57;1.40;;;15.80;99.90;;;;;;4987097;28;20293;-66
2023/03/23 12:53:23;;;;;;;4.30;1.90;;;15.80;99.90;;;;;;4985922;28;20957;-67
2023/03/23 12:56:15;;;;;;;1.90;1.27;;;16.00;99.90;;;;;;4986156;28;20208;-67
2023/03/23 12:58:51;;;;;;;2.60;1.37;;;16.30;99.90;;;;;;4973183;28;20217;-67
2023/03/23 13:01:32;;;;;;;1.57;1.47;;;16.90;99.90;;;;;;4984907;28;20236;-69
2023/03/23 13:04:09;;;;;;;2.37;1.50;;;17.20;99.90;;;;;;4985644;28;20298;-67
2023/03/23 13:06:44;;;;;;;1.57;1.47;;;17.50;99.90;;;;;;4995207;28;20199;-67